createdAt,value
2022-11-09T00:01:44.057Z,11.99
2022-11-09T00:04:13.374Z,12.11
2022-11-09T00:06:41.420Z,12.04
2022-11-09T00:09:10.511Z,12.28
2022-11-09T00:11:38.856Z,12.22
2022-11-09T00:14:14.410Z,12.36
2022-11-09T00:16:42.407Z,12.25
2022-11-09T00:19:10.423Z,12.02
2022-11-09T00:21:42.203Z,12.33
2022-11-09T00:24:10.216Z,11.79
2022-11-09T00:26:38.159Z,12.08
2022-11-09T00:29:06.257Z,12.08
2022-11-09T00:31:34.367Z,11.80
2022-11-09T00:34:02.393Z,11.27
2022-11-09T00:36:30.839Z,11.01
2022-11-09T00:39:01.046Z,10.96
2022-11-09T00:41:29.354Z,11.14
2022-11-09T00:43:57.378Z,11.46
2022-11-09T00:46:28.119Z,11.08
2022-11-09T00:48:56.816Z,11.25
2022-11-09T00:51:25.108Z,11.42
2022-11-09T00:53:57.370Z,11.51
2022-11-09T00:56:27.110Z,11.75
2022-11-09T00:58:56.260Z,11.57
2022-11-09T01:01:24.484Z,11.52
2022-11-09T01:03:52.652Z,10.62
2022-11-09T01:06:21.319Z,10.57
2022-11-09T01:08:49.561Z,10.58
2022-11-09T01:11:18.849Z,10.78
2022-11-09T01:13:48.154Z,10.71
2022-11-09T01:16:17.370Z,10.80
2022-11-09T01:18:47.985Z,11.17
2022-11-09T01:21:17.399Z,10.95
2022-11-09T01:23:45.337Z,10.93
2022-11-09T01:26:14.196Z,11.11
2022-11-09T01:28:42.467Z,10.78
2022-11-09T01:31:17.204Z,10.54
2022-11-09T01:33:45.234Z,10.46
2022-11-09T01:36:14.058Z,10.38
2022-11-09T01:38:42.077Z,10.92
2022-11-09T01:41:12.306Z,10.75
2022-11-09T01:43:40.314Z,10.18
2022-11-09T01:46:15.526Z,10.54
2022-11-09T01:48:47.693Z,10.30
2022-11-09T01:51:17.401Z,10.35
2022-11-09T01:53:48.414Z,10.29
2022-11-09T01:56:18.294Z,10.43
2022-11-09T01:58:51.458Z,10.62
2022-11-09T02:01:21.760Z,10.85
2022-11-09T02:03:54.561Z,11.22
2022-11-09T02:06:26.864Z,10.85
2022-11-09T02:09:02.200Z,10.91
2022-11-09T02:11:32.259Z,10.85
2022-11-09T02:14:19.075Z,10.72
2022-11-09T02:16:54.676Z,10.92
2022-11-09T02:19:22.710Z,10.91
2022-11-09T02:21:54.890Z,10.87
2022-11-09T02:24:26.282Z,10.96
2022-11-09T02:26:55.026Z,11.19
2022-11-09T02:29:25.030Z,11.08
2022-11-09T02:31:56.178Z,11.22
2022-11-09T02:34:25.593Z,11.43
2022-11-09T02:36:57.344Z,11.31
2022-11-09T02:39:26.762Z,11.35
2022-11-09T02:41:57.037Z,11.20
2022-11-09T02:44:31.039Z,11.36
2022-11-09T02:46:59.151Z,11.26
2022-11-09T02:49:29.449Z,11.25
2022-11-09T02:51:58.827Z,11.07
2022-11-09T02:54:26.858Z,11.11
2022-11-09T02:56:55.733Z,11.06
2022-11-09T02:59:23.869Z,10.97
2022-11-09T03:01:51.993Z,11.10
2022-11-09T03:04:20.232Z,10.75
2022-11-09T03:06:48.619Z,10.58
2022-11-09T03:09:20.800Z,10.45
2022-11-09T03:11:49.526Z,10.60
2022-11-09T03:14:17.775Z,10.71
2022-11-09T03:16:51.162Z,10.52
2022-11-09T03:19:20.132Z,10.51
2022-11-09T03:21:51.473Z,10.52
2022-11-09T03:24:25.215Z,10.64
2022-11-09T03:26:56.994Z,10.47
2022-11-09T03:29:25.086Z,11.00
2022-11-09T03:31:53.368Z,10.84
2022-11-09T03:34:21.445Z,10.93
2022-11-09T03:36:49.564Z,10.96
2022-11-09T03:39:18.161Z,10.49
2022-11-09T03:41:47.505Z,10.88
2022-11-09T03:44:15.612Z,10.66
2022-11-09T03:46:43.548Z,11.05
2022-11-09T03:49:11.657Z,11.06
2022-11-09T03:51:41.988Z,10.83
2022-11-09T03:54:10.078Z,11.30
2022-11-09T03:56:38.044Z,11.03
2022-11-09T03:59:07.513Z,11.16
2022-11-09T04:01:35.517Z,11.14
2022-11-09T04:04:03.556Z,11.15
2022-11-09T04:06:31.512Z,10.93
2022-11-09T04:08:59.556Z,11.27
2022-11-09T04:11:27.558Z,11.19
2022-11-09T04:13:55.569Z,10.81
2022-11-09T04:16:24.952Z,10.55
2022-11-09T04:18:52.961Z,10.85
2022-11-09T04:21:23.861Z,10.64
2022-11-09T04:23:52.166Z,10.73
2022-11-09T04:26:20.135Z,10.83
2022-11-09T04:28:48.179Z,10.52
2022-11-09T04:31:16.195Z,10.61
2022-11-09T04:33:52.053Z,10.48
2022-11-09T04:36:22.598Z,10.63
2022-11-09T04:38:50.614Z,10.77
2022-11-09T04:41:18.576Z,10.78
2022-11-09T04:43:48.908Z,10.49
2022-11-09T04:46:16.909Z,10.57
2022-11-09T04:48:44.916Z,10.54
2022-11-09T04:51:14.209Z,10.38
2022-11-09T04:53:42.252Z,10.32
2022-11-09T04:56:10.224Z,10.36
2022-11-09T04:58:38.666Z,10.37
2022-11-09T05:01:08.374Z,10.47
2022-11-09T05:03:36.441Z,10.59
2022-11-09T05:06:25.173Z,10.66
2022-11-09T05:08:55.706Z,10.30
2022-11-09T05:11:24.174Z,10.43
2022-11-09T05:13:52.462Z,10.35
2022-11-09T05:16:20.968Z,10.33
2022-11-09T05:18:51.463Z,10.27
2022-11-09T05:21:19.999Z,10.53
2022-11-09T05:23:58.886Z,10.30
2022-11-09T05:26:32.201Z,10.21
2022-11-09T05:29:00.398Z,10.24
2022-11-09T05:31:28.622Z,10.27
2022-11-09T05:33:56.745Z,9.97
2022-11-09T05:36:24.754Z,9.89
2022-11-09T05:38:52.729Z,9.82
2022-11-09T05:41:21.370Z,9.89
2022-11-09T05:43:51.119Z,10.05
2022-11-09T05:46:19.637Z,10.08
2022-11-09T05:48:47.624Z,10.18
2022-11-09T05:51:16.204Z,10.14
2022-11-09T05:53:46.670Z,9.99
2022-11-09T05:56:15.596Z,10.27
2022-11-09T05:58:43.833Z,10.48
2022-11-09T06:01:14.213Z,10.29
2022-11-09T06:03:44.055Z,10.78
2022-11-09T06:06:13.014Z,10.93
2022-11-09T06:08:41.131Z,10.75
2022-11-09T06:11:10.333Z,10.42
2022-11-09T06:13:38.324Z,10.49
2022-11-09T06:16:07.024Z,10.76
2022-11-09T06:18:36.917Z,10.78
2022-11-09T06:21:06.299Z,10.64
2022-11-09T06:23:34.490Z,10.95
2022-11-09T06:26:03.231Z,10.59
2022-11-09T06:28:31.320Z,10.83
2022-11-09T06:30:59.607Z,11.07
2022-11-09T06:33:27.726Z,11.00
2022-11-09T06:35:57.387Z,10.29
2022-11-09T06:38:26.356Z,10.09
2022-11-09T06:40:54.844Z,10.15
2022-11-09T06:43:23.187Z,10.54
2022-11-09T06:45:51.666Z,10.39
2022-11-09T06:48:19.774Z,10.38
2022-11-09T06:50:47.740Z,10.49
2022-11-09T06:53:18.675Z,10.10
2022-11-09T06:55:50.659Z,10.31
2022-11-09T06:58:19.600Z,10.64
2022-11-09T07:00:50.371Z,10.57
2022-11-09T07:03:19.888Z,10.83
2022-11-09T07:05:48.504Z,10.63
2022-11-09T07:08:18.348Z,10.94
2022-11-09T07:10:46.828Z,11.10
2022-11-09T07:13:15.255Z,11.23
2022-11-09T07:15:43.233Z,11.14
2022-11-09T07:18:11.940Z,11.20
2022-11-09T07:20:39.966Z,11.10
2022-11-09T07:23:08.019Z,10.91
2022-11-09T07:25:37.550Z,10.81
2022-11-09T07:28:07.449Z,10.94
2022-11-09T07:30:36.514Z,10.88
2022-11-09T07:33:10.111Z,10.74
2022-11-09T07:35:38.588Z,10.71
2022-11-09T07:38:06.589Z,10.98
2022-11-09T07:40:34.705Z,10.99
2022-11-09T07:43:04.899Z,10.80
2022-11-09T07:45:34.028Z,11.20
2022-11-09T07:48:02.685Z,11.12
2022-11-09T07:50:31.980Z,11.08
2022-11-09T07:53:01.155Z,11.20
2022-11-09T07:55:29.595Z,11.09
2022-11-09T07:57:57.769Z,11.24
2022-11-09T08:00:28.123Z,11.14
2022-11-09T08:02:56.600Z,11.07
2022-11-09T08:05:24.812Z,11.16
2022-11-09T08:07:58.223Z,11.67
2022-11-09T08:10:26.944Z,11.64
2022-11-09T08:12:55.818Z,11.85
2022-11-09T08:15:24.202Z,11.52
2022-11-09T08:17:53.590Z,11.70
2022-11-09T08:20:22.267Z,12.00
2022-11-09T08:22:50.275Z,12.43
2022-11-09T08:25:18.453Z,12.48
2022-11-09T08:27:47.083Z,12.47
2022-11-09T08:30:15.844Z,12.81
2022-11-09T08:32:44.270Z,12.69
2022-11-09T08:35:17.686Z,12.75
2022-11-09T08:37:46.764Z,12.57
2022-11-09T08:40:16.104Z,12.27
2022-11-09T08:42:44.543Z,12.79
2022-11-09T08:45:12.894Z,12.11
2022-11-09T08:47:41.032Z,12.60
2022-11-09T08:50:10.018Z,12.43
2022-11-09T08:52:39.516Z,12.44
2022-11-09T08:55:08.545Z,12.21
2022-11-09T08:57:38.888Z,12.75
2022-11-09T09:00:07.561Z,12.50
2022-11-09T09:02:37.607Z,12.44
2022-11-09T09:05:06.045Z,12.83
2022-11-09T09:07:34.018Z,13.06
2022-11-09T09:10:06.368Z,12.81
2022-11-09T09:12:34.397Z,12.97
2022-11-09T09:15:02.369Z,12.85
2022-11-09T09:17:30.438Z,12.79
2022-11-09T09:19:58.435Z,12.93
2022-11-09T09:22:26.468Z,13.15
2022-11-09T09:24:54.567Z,13.31
2022-11-09T09:27:23.924Z,13.22
2022-11-09T09:29:51.939Z,13.54
2022-11-09T09:32:19.935Z,13.55
2022-11-09T09:34:47.963Z,13.37
2022-11-09T09:37:17.228Z,13.40
2022-11-09T09:39:45.287Z,13.67
2022-11-09T09:42:16.457Z,13.41
2022-11-09T09:44:48.345Z,13.75
2022-11-09T09:47:18.276Z,13.38
2022-11-09T09:49:47.603Z,13.60
2022-11-09T09:52:18.569Z,13.57
2022-11-09T09:54:52.205Z,13.76
2022-11-09T09:57:21.214Z,14.14
2022-11-09T09:59:51.720Z,14.00
2022-11-09T10:02:24.368Z,14.20
2022-11-09T10:04:53.012Z,14.07
2022-11-09T10:07:25.513Z,13.91
2022-11-09T10:10:09.595Z,14.21
2022-11-09T10:12:42.987Z,14.56
2022-11-09T10:15:16.741Z,14.26
2022-11-09T10:17:49.298Z,14.16
2022-11-09T10:20:30.948Z,14.26
2022-11-09T10:23:07.688Z,14.18
2022-11-09T10:25:58.198Z,14.23
2022-11-09T10:28:34.286Z,14.39
2022-11-09T10:31:16.452Z,14.34
2022-11-09T10:33:45.191Z,14.34
2022-11-09T10:36:18.571Z,14.14
2022-11-09T10:38:48.974Z,14.27
2022-11-09T10:41:39.094Z,14.33
2022-11-09T10:44:25.967Z,14.14
2022-11-09T10:47:16.625Z,14.23
2022-11-09T10:50:16.499Z,14.55
2022-11-09T10:53:10.939Z,14.55
2022-11-09T10:55:58.118Z,14.71
2022-11-09T10:58:48.265Z,14.87
2022-11-09T11:01:37.705Z,15.15
2022-11-09T11:04:26.706Z,14.98
2022-11-09T11:07:21.209Z,15.35
2022-11-09T11:10:12.021Z,14.96
2022-11-09T11:13:20.553Z,15.09
2022-11-09T11:16:15.815Z,15.04
2022-11-09T11:19:03.887Z,15.15
2022-11-09T11:22:09.406Z,15.27
2022-11-09T11:24:57.104Z,15.28
2022-11-09T11:27:46.062Z,15.28
2022-11-09T11:30:36.150Z,15.07
2022-11-09T11:33:23.331Z,15.16
2022-11-09T11:36:17.489Z,15.22
2022-11-09T11:39:13.397Z,15.15
2022-11-09T11:42:10.005Z,15.10
2022-11-09T11:45:33.524Z,15.28
2022-11-09T11:48:29.007Z,15.11
2022-11-09T11:51:19.137Z,15.31
2022-11-09T11:54:14.993Z,15.54
2022-11-09T11:57:04.963Z,15.61
2022-11-09T12:00:11.511Z,15.75
2022-11-09T12:03:07.428Z,15.77
2022-11-09T12:06:03.497Z,15.81
2022-11-09T12:09:04.460Z,16.02
2022-11-09T12:12:00.470Z,15.65
2022-11-09T12:15:00.822Z,15.38
2022-11-09T12:17:53.106Z,15.62
2022-11-09T12:20:44.013Z,15.72
2022-11-09T12:23:37.722Z,15.76
2022-11-09T12:26:32.647Z,15.67
2022-11-09T12:29:23.488Z,15.65
2022-11-09T12:32:13.773Z,15.88
2022-11-09T12:35:04.633Z,15.76
2022-11-09T12:37:54.768Z,16.05
2022-11-09T12:40:45.571Z,15.84
2022-11-09T12:43:34.084Z,16.15
2022-11-09T12:46:24.300Z,16.13
2022-11-09T12:49:20.185Z,16.02
2022-11-09T12:52:07.667Z,15.86
2022-11-09T12:54:54.564Z,15.87
2022-11-09T12:57:45.785Z,15.93
2022-11-09T13:00:47.138Z,15.69
2022-11-09T13:03:35.967Z,16.02
2022-11-09T13:06:24.512Z,15.88
2022-11-09T13:09:21.412Z,15.83
2022-11-09T13:12:18.531Z,15.73
2022-11-09T13:15:23.021Z,16.16
2022-11-09T13:18:23.917Z,16.09
2022-11-09T13:21:29.234Z,16.05
2022-11-09T13:24:34.176Z,16.20
2022-11-09T13:27:39.696Z,15.51
2022-11-09T13:30:50.483Z,15.93
2022-11-09T13:33:39.557Z,16.15
2022-11-09T13:36:26.356Z,15.88
2022-11-09T13:39:30.951Z,15.78
2022-11-09T13:42:35.790Z,15.86
2022-11-09T13:45:26.960Z,15.84
2022-11-09T13:48:25.752Z,15.86
2022-11-09T13:51:15.739Z,15.81
2022-11-09T13:54:02.732Z,15.88
2022-11-09T13:56:49.753Z,15.89
2022-11-09T13:59:39.936Z,15.86
2022-11-09T14:02:27.384Z,15.68
2022-11-09T14:05:24.448Z,15.48
2022-11-09T14:08:17.807Z,15.30
2022-11-09T14:11:15.059Z,15.63
2022-11-09T14:14:12.685Z,15.34
2022-11-09T14:17:03.189Z,15.31
2022-11-09T14:19:56.367Z,15.18
2022-11-09T14:22:43.138Z,14.85
2022-11-09T14:25:37.277Z,14.99
2022-11-09T14:28:25.546Z,15.15
2022-11-09T14:31:22.645Z,15.25
2022-11-09T14:34:15.455Z,14.96
2022-11-09T14:37:05.738Z,15.07
2022-11-09T14:39:53.996Z,14.61
2022-11-09T14:42:48.750Z,14.54
2022-11-09T14:45:35.547Z,14.34
2022-11-09T14:48:24.245Z,14.32
2022-11-09T14:51:14.746Z,14.30
2022-11-09T14:54:02.704Z,14.18
2022-11-09T14:56:49.558Z,14.40
2022-11-09T14:59:37.491Z,14.15
2022-11-09T15:02:24.598Z,14.09
2022-11-09T15:05:26.222Z,14.08
2022-11-09T15:08:16.006Z,14.01
2022-11-09T15:11:02.609Z,13.97
2022-11-09T15:13:49.344Z,13.99
2022-11-09T15:16:37.480Z,14.12
2022-11-09T15:19:25.262Z,13.85
2022-11-09T15:22:26.833Z,13.70
2022-11-09T15:25:20.973Z,13.85
2022-11-09T15:28:24.903Z,13.82
2022-11-09T15:31:15.509Z,13.59
2022-11-09T15:34:03.415Z,13.52
2022-11-09T15:36:54.407Z,13.43
2022-11-09T15:39:41.125Z,13.49
2022-11-09T15:42:28.363Z,13.48
2022-11-09T15:45:15.425Z,13.30
2022-11-09T15:48:02.623Z,13.28
2022-11-09T15:50:50.713Z,13.46
2022-11-09T15:53:37.321Z,13.38
2022-11-09T15:56:25.019Z,13.29
2022-11-09T15:59:16.336Z,13.07
2022-11-09T16:02:03.192Z,13.11
2022-11-09T16:04:49.772Z,13.17
2022-11-09T16:07:37.930Z,13.14
2022-11-09T16:10:27.054Z,13.11
2022-11-09T16:13:14.303Z,13.15
2022-11-09T16:16:05.885Z,13.10
2022-11-09T16:18:52.734Z,13.01
2022-11-09T16:21:39.359Z,13.16
2022-11-09T16:24:27.503Z,13.12
2022-11-09T16:27:42.953Z,12.95
2022-11-09T16:30:21.924Z,12.80
2022-11-09T16:33:08.780Z,12.79
2022-11-09T16:35:56.528Z,12.83
2022-11-09T16:38:45.186Z,13.44
2022-11-09T16:41:33.487Z,13.45
2022-11-09T16:44:24.769Z,13.12
2022-11-09T16:47:14.206Z,13.19
2022-11-09T16:50:00.953Z,13.30
2022-11-09T16:52:47.688Z,13.27
2022-11-09T16:55:35.233Z,13.14
2022-11-09T16:58:24.076Z,13.22
2022-11-09T17:01:12.931Z,13.12
2022-11-09T17:04:00.951Z,13.02
2022-11-09T17:06:48.195Z,12.76
2022-11-09T17:09:35.409Z,13.02
2022-11-09T17:12:22.213Z,13.01
2022-11-09T17:15:11.547Z,12.81
2022-11-09T17:17:58.238Z,12.46
2022-11-09T17:20:45.920Z,12.45
2022-11-09T17:23:33.802Z,12.69
2022-11-09T17:26:21.105Z,12.55
2022-11-09T17:29:07.796Z,12.62
2022-11-09T17:31:55.995Z,12.91
2022-11-09T17:34:42.751Z,12.90
2022-11-09T17:37:29.368Z,12.70
2022-11-09T17:40:17.168Z,12.64
2022-11-09T17:43:03.816Z,12.45
2022-11-09T17:45:50.439Z,12.35
2022-11-09T17:48:39.108Z,12.56
2022-11-09T17:51:26.128Z,12.47
2022-11-09T17:54:14.586Z,12.54
2022-11-09T17:57:02.406Z,12.66
2022-11-09T17:59:48.827Z,12.56
2022-11-09T18:02:36.043Z,12.50
2022-11-09T18:05:23.961Z,12.65
2022-11-09T18:08:11.505Z,12.65
2022-11-09T18:10:58.915Z,12.52
2022-11-09T18:13:46.051Z,12.67
2022-11-09T18:16:32.684Z,13.05
2022-11-09T18:19:19.279Z,12.86
2022-11-09T18:22:12.519Z,12.78
2022-11-09T18:24:59.380Z,12.88
2022-11-09T18:27:47.217Z,12.73
2022-11-09T18:30:33.710Z,12.70
2022-11-09T18:33:20.728Z,12.45
2022-11-09T18:36:08.978Z,12.31
2022-11-09T18:38:57.534Z,12.21
2022-11-09T18:41:44.334Z,12.23
2022-11-09T18:44:31.232Z,12.36
2022-11-09T18:47:18.077Z,12.46
2022-11-09T18:50:05.584Z,12.44
2022-11-09T18:52:52.233Z,12.41
2022-11-09T18:55:40.559Z,12.56
2022-11-09T18:58:27.057Z,12.65
2022-11-09T19:01:14.203Z,12.67
2022-11-09T19:04:01.873Z,12.51
2022-11-09T19:06:48.689Z,12.48
2022-11-09T19:09:38.779Z,12.43
2022-11-09T19:12:26.733Z,12.49
2022-11-09T19:15:14.039Z,12.49
2022-11-09T19:18:00.765Z,12.49
2022-11-09T19:20:47.773Z,12.33
2022-11-09T19:23:35.041Z,12.57
2022-11-09T19:26:21.766Z,12.53
2022-11-09T19:29:10.077Z,12.41
2022-11-09T19:31:56.800Z,12.38
2022-11-09T19:34:43.626Z,12.28
2022-11-09T19:37:30.238Z,12.59
2022-11-09T19:40:17.331Z,12.65
2022-11-09T19:43:04.071Z,12.31
2022-11-09T19:45:52.324Z,12.50
2022-11-09T19:48:38.799Z,12.37
2022-11-09T19:51:25.890Z,12.41
2022-11-09T19:54:13.231Z,12.42
2022-11-09T19:56:59.957Z,12.50
2022-11-09T19:59:46.765Z,12.74
2022-11-09T20:02:34.973Z,12.43
2022-11-09T20:05:21.413Z,12.54
2022-11-09T20:08:08.118Z,12.42
2022-11-09T20:10:55.095Z,12.49
2022-11-09T20:13:42.036Z,12.22
2022-11-09T20:16:28.789Z,12.23
2022-11-09T20:19:16.742Z,12.01
2022-11-09T20:22:03.178Z,12.12
2022-11-09T20:24:50.008Z,12.13
2022-11-09T20:27:36.941Z,11.92
2022-11-09T20:30:23.799Z,12.08
2022-11-09T20:33:10.700Z,11.93
2022-11-09T20:35:59.030Z,12.03
2022-11-09T20:38:46.599Z,12.00
2022-11-09T20:41:33.445Z,12.11
2022-11-09T20:44:19.963Z,12.07
2022-11-09T20:47:06.751Z,12.01
2022-11-09T20:49:53.145Z,11.93
2022-11-09T20:52:41.587Z,11.91
2022-11-09T20:55:28.274Z,11.79
2022-11-09T20:58:15.125Z,12.04
2022-11-09T21:01:03.065Z,11.94
2022-11-09T21:03:50.958Z,11.86
2022-11-09T21:06:37.516Z,12.04
2022-11-09T21:09:25.471Z,12.18
2022-11-09T21:12:25.497Z,12.17
2022-11-09T21:15:14.027Z,12.25
2022-11-09T21:18:00.574Z,11.82
2022-11-09T21:20:49.875Z,11.91
2022-11-09T21:23:57.342Z,11.71
2022-11-09T21:27:03.331Z,11.62
2022-11-09T21:29:52.846Z,11.91
2022-11-09T21:32:39.808Z,11.77
2022-11-09T21:35:26.735Z,11.70
2022-11-09T21:38:13.793Z,11.62
2022-11-09T21:41:05.401Z,11.75
2022-11-09T21:43:56.157Z,11.82
2022-11-09T21:46:43.873Z,11.78
2022-11-09T21:49:31.154Z,11.71
2022-11-09T21:52:17.843Z,11.76
2022-11-09T21:55:04.761Z,11.87
2022-11-09T21:57:51.225Z,11.96
2022-11-09T22:02:41.914Z,12.08
2022-11-09T22:05:28.408Z,12.10
2022-11-09T22:08:14.812Z,12.17
2022-11-09T22:11:05.905Z,11.84
2022-11-09T22:14:10.139Z,11.79
2022-11-09T22:16:56.973Z,11.60
2022-11-09T22:20:02.571Z,11.72
2022-11-09T22:22:49.351Z,11.67
2022-11-09T22:25:36.087Z,11.61
2022-11-09T22:28:22.751Z,11.94
2022-11-09T22:31:10.043Z,11.93
2022-11-09T22:33:56.402Z,11.87
2022-11-09T22:36:44.443Z,12.02
2022-11-09T22:39:31.105Z,11.60
2022-11-09T22:42:17.753Z,11.71
2022-11-09T22:45:04.830Z,11.65
2022-11-09T22:47:51.104Z,11.87
2022-11-09T22:50:38.183Z,11.92
2022-11-09T22:53:26.356Z,11.99
2022-11-09T22:56:12.918Z,11.85
2022-11-09T22:58:59.589Z,11.52
2022-11-09T23:01:46.462Z,11.60
2022-11-09T23:04:33.007Z,11.55
2022-11-09T23:07:19.703Z,11.74
2022-11-09T23:10:10.162Z,11.45
2022-11-09T23:12:58.277Z,11.89
2022-11-09T23:15:44.707Z,11.75
2022-11-09T23:18:48.999Z,11.47
2022-11-09T23:21:36.752Z,11.71
2022-11-09T23:24:37.451Z,11.46
2022-11-09T23:27:25.243Z,11.80
2022-11-09T23:30:12.598Z,11.53
2022-11-09T23:33:00.739Z,11.36
2022-11-09T23:35:47.040Z,11.49
2022-11-09T23:38:34.064Z,11.36
2022-11-09T23:41:20.739Z,11.45
2022-11-09T23:44:08.565Z,11.49
2022-11-09T23:46:55.075Z,11.43
2022-11-09T23:49:41.868Z,11.25
2022-11-09T23:52:28.561Z,11.22
2022-11-09T23:55:15.263Z,11.50
2022-11-09T23:58:02.180Z,11.48
